sensor_id;sensor_type;location;lat;lon;timestamp;temperature;humidity
18189;DHT22;9219;50.396;8.546;2022-07-10T00:00:30;13.30;99.90
18189;DHT22;9219;50.396;8.546;2022-07-10T00:02:58;13.30;99.90
18189;DHT22;9219;50.396;8.546;2022-07-10T00:10:31;13.30;99.90
18189;DHT22;9219;50.396;8.546;2022-07-10T00:13:00;13.20;99.90
18189;DHT22;9219;50.396;8.546;2022-07-10T00:15:28;13.10;99.90
18189;DHT22;9219;50.396;8.546;2022-07-10T00:17:58;13.10;99.90
18189;DHT22;9219;50.396;8.546;2022-07-10T00:20:26;13.00;99.90
18189;DHT22;9219;50.396;8.546;2022-07-10T00:22:53;13.00;99.90
18189;DHT22;9219;50.396;8.546;2022-07-10T00:25:27;12.90;99.90
18189;DHT22;9219;50.396;8.546;2022-07-10T00:27:56;12.80;99.90
18189;DHT22;9219;50.396;8.546;2022-07-10T00:33:07;12.80;99.90
18189;DHT22;9219;50.396;8.546;2022-07-10T00:35:35;12.70;99.90
18189;DHT22;9219;50.396;8.546;2022-07-10T00:38:02;12.70;99.90
18189;DHT22;9219;50.396;8.546;2022-07-10T00:40:33;12.70;99.90
18189;DHT22;9219;50.396;8.546;2022-07-10T00:43:00;12.60;99.90
18189;DHT22;9219;50.396;8.546;2022-07-10T00:45:28;12.60;99.90
18189;DHT22;9219;50.396;8.546;2022-07-10T00:47:56;12.50;99.90
18189;DHT22;9219;50.396;8.546;2022-07-10T00:53:05;12.50;99.90
18189;DHT22;9219;50.396;8.546;2022-07-10T00:55:33;12.50;99.90
18189;DHT22;9219;50.396;8.546;2022-07-10T00:58:06;12.50;99.90
18189;DHT22;9219;50.396;8.546;2022-07-10T01:00:35;12.40;99.90
18189;DHT22;9219;50.396;8.546;2022-07-10T01:03:05;12.50;99.90
18189;DHT22;9219;50.396;8.546;2022-07-10T01:05:33;12.40;99.90
18189;DHT22;9219;50.396;8.546;2022-07-10T01:08:00;12.40;99.90
18189;DHT22;9219;50.396;8.546;2022-07-10T01:13:10;12.30;99.90
18189;DHT22;9219;50.396;8.546;2022-07-10T01:15:38;12.40;99.90
18189;DHT22;9219;50.396;8.546;2022-07-10T01:18:05;12.40;99.90
18189;DHT22;9219;50.396;8.546;2022-07-10T01:20:33;12.30;99.90
18189;DHT22;9219;50.396;8.546;2022-07-10T01:23:02;12.30;99.90
18189;DHT22;9219;50.396;8.546;2022-07-10T01:25:30;12.30;99.90
18189;DHT22;9219;50.396;8.546;2022-07-10T01:27:57;12.30;99.90
18189;DHT22;9219;50.396;8.546;2022-07-10T01:33:17;12.30;99.90
18189;DHT22;9219;50.396;8.546;2022-07-10T01:35:45;12.30;99.90
18189;DHT22;9219;50.396;8.546;2022-07-10T01:38:12;12.30;99.90
18189;DHT22;9219;50.396;8.546;2022-07-10T01:40:39;12.20;99.90
18189;DHT22;9219;50.396;8.546;2022-07-10T01:43:07;12.20;99.90
18189;DHT22;9219;50.396;8.546;2022-07-10T01:45:34;12.30;99.90
18189;DHT22;9219;50.396;8.546;2022-07-10T01:48:02;12.30;99.90
18189;DHT22;9219;50.396;8.546;2022-07-10T01:50:31;12.20;99.90
18189;DHT22;9219;50.396;8.546;2022-07-10T02:03:49;12.20;99.90
18189;DHT22;9219;50.396;8.546;2022-07-10T02:06:34;12.30;99.90
18189;DHT22;9219;50.396;8.546;2022-07-10T02:09:02;12.30;99.90
18189;DHT22;9219;50.396;8.546;2022-07-10T02:11:29;12.20;99.90
18189;DHT22;9219;50.396;8.546;2022-07-10T02:13:56;12.20;99.90
18189;DHT22;9219;50.396;8.546;2022-07-10T02:16:24;12.00;99.90
18189;DHT22;9219;50.396;8.546;2022-07-10T02:18:52;11.80;99.90
18189;DHT22;9219;50.396;8.546;2022-07-10T02:26:26;11.70;99.90
18189;DHT22;9219;50.396;8.546;2022-07-10T02:28:53;11.70;99.90
18189;DHT22;9219;50.396;8.546;2022-07-10T02:31:22;11.60;99.90
18189;DHT22;9219;50.396;8.546;2022-07-10T02:33:50;11.40;99.90
18189;DHT22;9219;50.396;8.546;2022-07-10T02:36:18;11.40;99.90
18189;DHT22;9219;50.396;8.546;2022-07-10T02:38:46;11.30;99.90
18189;DHT22;9219;50.396;8.546;2022-07-10T02:41:14;11.20;99.90
18189;DHT22;9219;50.396;8.546;2022-07-10T02:51:30;11.00;99.90
18189;DHT22;9219;50.396;8.546;2022-07-10T02:53:58;11.00;99.90
18189;DHT22;9219;50.396;8.546;2022-07-10T02:56:26;10.90;99.90
18189;DHT22;9219;50.396;8.546;2022-07-10T02:58:54;10.90;99.90
18189;DHT22;9219;50.396;8.546;2022-07-10T03:01:21;11.00;99.90
18189;DHT22;9219;50.396;8.546;2022-07-10T03:03:49;10.90;99.90
18189;DHT22;9219;50.396;8.546;2022-07-10T03:06:18;10.90;99.90
18189;DHT22;9219;50.396;8.546;2022-07-10T03:08:52;10.90;99.90
18189;DHT22;9219;50.396;8.546;2022-07-10T03:14:11;10.90;99.90
18189;DHT22;9219;50.396;8.546;2022-07-10T03:16:39;10.90;99.90
18189;DHT22;9219;50.396;8.546;2022-07-10T03:19:06;10.90;99.90
18189;DHT22;9219;50.396;8.546;2022-07-10T03:21:34;10.90;99.90
18189;DHT22;9219;50.396;8.546;2022-07-10T03:24:03;10.90;99.90
18189;DHT22;9219;50.396;8.546;2022-07-10T03:26:30;10.80;99.90
18189;DHT22;9219;50.396;8.546;2022-07-10T03:28:57;10.80;99.90
18189;DHT22;9219;50.396;8.546;2022-07-10T03:34:12;10.80;99.90
18189;DHT22;9219;50.396;8.546;2022-07-10T03:36:39;10.80;99.90
18189;DHT22;9219;50.396;8.546;2022-07-10T03:39:07;10.70;99.90
18189;DHT22;9219;50.396;8.546;2022-07-10T03:41:34;10.70;99.90
18189;DHT22;9219;50.396;8.546;2022-07-10T03:44:02;10.70;99.90
18189;DHT22;9219;50.396;8.546;2022-07-10T03:46:30;10.60;99.90
18189;DHT22;9219;50.396;8.546;2022-07-10T03:48:58;10.70;99.90
18189;DHT22;9219;50.396;8.546;2022-07-10T03:51:26;10.60;99.90
18189;DHT22;9219;50.396;8.546;2022-07-10T03:59:01;10.70;99.90
18189;DHT22;9219;50.396;8.546;2022-07-10T04:01:29;10.80;99.90
18189;DHT22;9219;50.396;8.546;2022-07-10T04:03:57;10.80;99.90
18189;DHT22;9219;50.396;8.546;2022-07-10T04:06:25;10.80;99.90
18189;DHT22;9219;50.396;8.546;2022-07-10T04:08:52;10.70;99.90
18189;DHT22;9219;50.396;8.546;2022-07-10T04:11:19;10.80;99.90
18189;DHT22;9219;50.396;8.546;2022-07-10T04:13:48;10.70;99.90
18189;DHT22;9219;50.396;8.546;2022-07-10T04:21:20;10.70;99.90
18189;DHT22;9219;50.396;8.546;2022-07-10T04:23:48;10.60;99.90
18189;DHT22;9219;50.396;8.546;2022-07-10T04:26:16;10.70;99.90
18189;DHT22;9219;50.396;8.546;2022-07-10T04:28:44;10.60;99.90
18189;DHT22;9219;50.396;8.546;2022-07-10T04:31:11;10.60;99.90
18189;DHT22;9219;50.396;8.546;2022-07-10T04:33:39;10.70;99.90
18189;DHT22;9219;50.396;8.546;2022-07-10T04:36:07;10.70;99.90
18189;DHT22;9219;50.396;8.546;2022-07-10T04:38:36;10.80;99.90
18189;DHT22;9219;50.396;8.546;2022-07-10T04:46:25;10.90;99.90
18189;DHT22;9219;50.396;8.546;2022-07-10T04:48:53;10.90;99.90
18189;DHT22;9219;50.396;8.546;2022-07-10T04:51:21;10.90;99.90
18189;DHT22;9219;50.396;8.546;2022-07-10T04:53:49;11.00;99.90
18189;DHT22;9219;50.396;8.546;2022-07-10T04:56:17;11.10;99.90
18189;DHT22;9219;50.396;8.546;2022-07-10T04:58:45;11.10;99.90
18189;DHT22;9219;50.396;8.546;2022-07-10T05:01:18;11.20;99.90
18189;DHT22;9219;50.396;8.546;2022-07-10T05:03:48;11.30;99.90
18189;DHT22;9219;50.396;8.546;2022-07-10T05:11:22;11.50;99.90
18189;DHT22;9219;50.396;8.546;2022-07-10T05:13:50;11.60;99.90
18189;DHT22;9219;50.396;8.546;2022-07-10T05:16:18;11.70;99.90
18189;DHT22;9219;50.396;8.546;2022-07-10T05:18:47;11.60;99.90
18189;DHT22;9219;50.396;8.546;2022-07-10T05:21:14;11.60;99.90
18189;DHT22;9219;50.396;8.546;2022-07-10T05:23:42;11.70;99.90
18189;DHT22;9219;50.396;8.546;2022-07-10T05:26:10;11.70;99.90
18189;DHT22;9219;50.396;8.546;2022-07-10T05:31:56;11.70;99.90
18189;DHT22;9219;50.396;8.546;2022-07-10T05:34:23;11.70;99.90
18189;DHT22;9219;50.396;8.546;2022-07-10T05:36:51;11.60;99.90
18189;DHT22;9219;50.396;8.546;2022-07-10T05:39:19;11.50;99.90
18189;DHT22;9219;50.396;8.546;2022-07-10T05:41:46;11.60;99.90
18189;DHT22;9219;50.396;8.546;2022-07-10T05:44:13;11.70;99.90
18189;DHT22;9219;50.396;8.546;2022-07-10T05:46:41;11.80;99.90
18189;DHT22;9219;50.396;8.546;2022-07-10T05:56:49;11.70;99.90
18189;DHT22;9219;50.396;8.546;2022-07-10T05:59:17;11.90;99.90
18189;DHT22;9219;50.396;8.546;2022-07-10T06:01:45;11.90;99.90
18189;DHT22;9219;50.396;8.546;2022-07-10T06:04:13;11.90;99.90
18189;DHT22;9219;50.396;8.546;2022-07-10T06:06:43;12.10;99.90
18189;DHT22;9219;50.396;8.546;2022-07-10T06:09:13;12.20;99.90
18189;DHT22;9219;50.396;8.546;2022-07-10T06:11:40;12.20;99.90
18189;DHT22;9219;50.396;8.546;2022-07-10T06:17:34;12.30;99.90
18189;DHT22;9219;50.396;8.546;2022-07-10T06:20:01;12.10;99.90
18189;DHT22;9219;50.396;8.546;2022-07-10T06:22:29;12.20;99.90
18189;DHT22;9219;50.396;8.546;2022-07-10T06:25:00;12.10;99.90
18189;DHT22;9219;50.396;8.546;2022-07-10T06:27:27;12.20;99.90
18189;DHT22;9219;50.396;8.546;2022-07-10T06:29:57;12.20;99.90
18189;DHT22;9219;50.396;8.546;2022-07-10T06:32:25;12.10;99.90
18189;DHT22;9219;50.396;8.546;2022-07-10T06:43:04;12.20;99.90
18189;DHT22;9219;50.396;8.546;2022-07-10T06:45:31;12.40;99.90
18189;DHT22;9219;50.396;8.546;2022-07-10T06:47:59;12.40;99.90
18189;DHT22;9219;50.396;8.546;2022-07-10T06:50:27;12.40;99.90
18189;DHT22;9219;50.396;8.546;2022-07-10T06:52:57;12.50;99.90
18189;DHT22;9219;50.396;8.546;2022-07-10T06:55:26;12.60;99.90
18189;DHT22;9219;50.396;8.546;2022-07-10T06:57:54;12.70;99.90
18189;DHT22;9219;50.396;8.546;2022-07-10T07:00:23;12.80;99.90
18189;DHT22;9219;50.396;8.546;2022-07-10T07:07:56;12.50;99.90
18189;DHT22;9219;50.396;8.546;2022-07-10T07:10:23;12.60;99.90
18189;DHT22;9219;50.396;8.546;2022-07-10T07:12:51;12.60;99.90
18189;DHT22;9219;50.396;8.546;2022-07-10T07:15:18;12.50;99.90
18189;DHT22;9219;50.396;8.546;2022-07-10T07:17:49;12.40;99.90
18189;DHT22;9219;50.396;8.546;2022-07-10T07:20:35;12.50;99.90
18189;DHT22;9219;50.396;8.546;2022-07-10T07:23:23;12.70;99.90
18189;DHT22;9219;50.396;8.546;2022-07-10T07:31:03;12.70;99.90
18189;DHT22;9219;50.396;8.546;2022-07-10T07:33:34;12.80;99.90
18189;DHT22;9219;50.396;8.546;2022-07-10T07:36:02;12.90;99.90
18189;DHT22;9219;50.396;8.546;2022-07-10T07:38:30;12.80;99.90
18189;DHT22;9219;50.396;8.546;2022-07-10T07:40:57;12.80;99.90
18189;DHT22;9219;50.396;8.546;2022-07-10T07:43:24;12.90;99.90
18189;DHT22;9219;50.396;8.546;2022-07-10T07:45:52;12.90;99.90
18189;DHT22;9219;50.396;8.546;2022-07-10T07:51:00;12.90;99.90
18189;DHT22;9219;50.396;8.546;2022-07-10T07:53:28;13.10;99.90
18189;DHT22;9219;50.396;8.546;2022-07-10T07:55:56;13.40;99.90
18189;DHT22;9219;50.396;8.546;2022-07-10T07:58:23;13.60;99.90
18189;DHT22;9219;50.396;8.546;2022-07-10T08:00:51;13.90;99.90
18189;DHT22;9219;50.396;8.546;2022-07-10T08:03:19;13.70;99.90
18189;DHT22;9219;50.396;8.546;2022-07-10T08:05:46;13.70;99.90
18189;DHT22;9219;50.396;8.546;2022-07-10T08:10:57;13.90;99.90
18189;DHT22;9219;50.396;8.546;2022-07-10T08:13:25;13.80;99.90
18189;DHT22;9219;50.396;8.546;2022-07-10T08:15:52;13.80;99.90
18189;DHT22;9219;50.396;8.546;2022-07-10T08:18:26;13.50;99.90
18189;DHT22;9219;50.396;8.546;2022-07-10T08:20:54;13.70;99.90
18189;DHT22;9219;50.396;8.546;2022-07-10T08:23:21;13.50;99.90
18189;DHT22;9219;50.396;8.546;2022-07-10T08:25:48;13.40;99.90
18189;DHT22;9219;50.396;8.546;2022-07-10T08:33:20;13.60;99.90
18189;DHT22;9219;50.396;8.546;2022-07-10T08:35:48;13.80;99.90
18189;DHT22;9219;50.396;8.546;2022-07-10T08:38:15;14.00;99.90
18189;DHT22;9219;50.396;8.546;2022-07-10T08:40:43;14.20;99.90
18189;DHT22;9219;50.396;8.546;2022-07-10T08:43:11;14.30;99.90
18189;DHT22;9219;50.396;8.546;2022-07-10T08:45:40;14.10;99.90
18189;DHT22;9219;50.396;8.546;2022-07-10T08:48:09;14.10;99.90
18189;DHT22;9219;50.396;8.546;2022-07-10T08:55:49;14.50;99.90
18189;DHT22;9219;50.396;8.546;2022-07-10T08:59:06;14.00;99.90
18189;DHT22;9219;50.396;8.546;2022-07-10T09:01:09;14.00;99.90
18189;DHT22;9219;50.396;8.546;2022-07-10T09:04:56;13.90;99.90
18189;DHT22;9219;50.396;8.546;2022-07-10T09:07:14;13.90;99.90
18189;DHT22;9219;50.396;8.546;2022-07-10T09:10:06;14.20;99.90
18189;DHT22;9219;50.396;8.546;2022-07-10T09:16:42;14.30;99.90
18189;DHT22;9219;50.396;8.546;2022-07-10T09:19:18;14.50;99.90
18189;DHT22;9219;50.396;8.546;2022-07-10T09:21:59;14.40;99.90
18189;DHT22;9219;50.396;8.546;2022-07-10T09:24:41;14.60;99.90
18189;DHT22;9219;50.396;8.546;2022-07-10T09:27:23;14.70;99.90
18189;DHT22;9219;50.396;8.546;2022-07-10T09:30:35;14.90;99.90
18189;DHT22;9219;50.396;8.546;2022-07-10T09:38:51;14.90;99.90
18189;DHT22;9219;50.396;8.546;2022-07-10T09:41:23;15.00;99.90
18189;DHT22;9219;50.396;8.546;2022-07-10T09:43:52;14.90;99.90
18189;DHT22;9219;50.396;8.546;2022-07-10T09:46:21;15.00;99.90
18189;DHT22;9219;50.396;8.546;2022-07-10T09:49:04;15.10;99.90
18189;DHT22;9219;50.396;8.546;2022-07-10T09:51:34;15.20;99.90
18189;DHT22;9219;50.396;8.546;2022-07-10T09:54:04;15.20;99.90
18189;DHT22;9219;50.396;8.546;2022-07-10T09:59:19;15.20;99.90
18189;DHT22;9219;50.396;8.546;2022-07-10T10:01:49;15.00;99.90
18189;DHT22;9219;50.396;8.546;2022-07-10T10:04:19;15.10;99.90
18189;DHT22;9219;50.396;8.546;2022-07-10T10:06:51;15.40;99.90
18189;DHT22;9219;50.396;8.546;2022-07-10T10:09:22;15.50;99.90
18189;DHT22;9219;50.396;8.546;2022-07-10T10:11:56;15.80;99.90
18189;DHT22;9219;50.396;8.546;2022-07-10T10:14:25;15.90;99.90
18189;DHT22;9219;50.396;8.546;2022-07-10T10:16:56;16.30;99.90
18189;DHT22;9219;50.396;8.546;2022-07-10T10:19:49;16.80;99.90
18189;DHT22;9219;50.396;8.546;2022-07-10T10:22:45;17.10;99.90
18189;DHT22;9219;50.396;8.546;2022-07-10T10:25:14;16.80;99.90
18189;DHT22;9219;50.396;8.546;2022-07-10T10:27:43;16.50;99.90
18189;DHT22;9219;50.396;8.546;2022-07-10T10:30:11;16.30;99.90
18189;DHT22;9219;50.396;8.546;2022-07-10T10:32:40;16.20;99.90
18189;DHT22;9219;50.396;8.546;2022-07-10T10:35:09;16.20;99.90
18189;DHT22;9219;50.396;8.546;2022-07-10T10:42:44;15.80;99.90
18189;DHT22;9219;50.396;8.546;2022-07-10T10:45:25;16.40;99.90
18189;DHT22;9219;50.396;8.546;2022-07-10T10:47:59;16.30;99.90
18189;DHT22;9219;50.396;8.546;2022-07-10T10:50:47;16.80;99.90
18189;DHT22;9219;50.396;8.546;2022-07-10T10:53:16;17.20;99.90
18189;DHT22;9219;50.396;8.546;2022-07-10T10:56:22;17.40;99.90
18189;DHT22;9219;50.396;8.546;2022-07-10T10:59:08;17.50;99.90
18189;DHT22;9219;50.396;8.546;2022-07-10T11:07:12;17.10;99.90
18189;DHT22;9219;50.396;8.546;2022-07-10T11:09:40;17.10;99.90
18189;DHT22;9219;50.396;8.546;2022-07-10T11:12:09;17.10;99.90
18189;DHT22;9219;50.396;8.546;2022-07-10T11:14:40;17.00;99.90
18189;DHT22;9219;50.396;8.546;2022-07-10T11:17:09;16.90;99.90
18189;DHT22;9219;50.396;8.546;2022-07-10T11:19:37;16.80;99.90
18189;DHT22;9219;50.396;8.546;2022-07-10T11:30:15;16.70;99.90
18189;DHT22;9219;50.396;8.546;2022-07-10T11:32:43;16.70;99.90
18189;DHT22;9219;50.396;8.546;2022-07-10T11:35:11;16.70;99.90
18189;DHT22;9219;50.396;8.546;2022-07-10T11:37:49;16.70;99.90
18189;DHT22;9219;50.396;8.546;2022-07-10T11:40:18;16.80;99.90
18189;DHT22;9219;50.396;8.546;2022-07-10T11:42:53;16.70;99.90
18189;DHT22;9219;50.396;8.546;2022-07-10T11:45:27;16.60;99.90
18189;DHT22;9219;50.396;8.546;2022-07-10T11:53:06;16.70;99.90
18189;DHT22;9219;50.396;8.546;2022-07-10T11:55:33;16.60;99.90
18189;DHT22;9219;50.396;8.546;2022-07-10T11:58:16;16.40;99.90
18189;DHT22;9219;50.396;8.546;2022-07-10T12:00:44;16.50;99.90
18189;DHT22;9219;50.396;8.546;2022-07-10T12:03:24;16.40;99.90
18189;DHT22;9219;50.396;8.546;2022-07-10T12:06:00;16.50;99.90
18189;DHT22;9219;50.396;8.546;2022-07-10T12:08:29;16.50;99.90
18189;DHT22;9219;50.396;8.546;2022-07-10T12:16:02;16.60;99.90
18189;DHT22;9219;50.396;8.546;2022-07-10T12:18:30;16.70;99.90
18189;DHT22;9219;50.396;8.546;2022-07-10T12:21:00;16.60;99.90
18189;DHT22;9219;50.396;8.546;2022-07-10T12:23:28;16.40;99.90
18189;DHT22;9219;50.396;8.546;2022-07-10T12:25:56;16.40;99.90
18189;DHT22;9219;50.396;8.546;2022-07-10T12:28:23;16.40;99.90
18189;DHT22;9219;50.396;8.546;2022-07-10T12:30:51;16.20;99.90
18189;DHT22;9219;50.396;8.546;2022-07-10T12:33:22;16.30;99.90
18189;DHT22;9219;50.396;8.546;2022-07-10T12:41:13;16.20;99.90
18189;DHT22;9219;50.396;8.546;2022-07-10T12:43:49;16.40;99.90
18189;DHT22;9219;50.396;8.546;2022-07-10T12:46:18;16.60;99.90
18189;DHT22;9219;50.396;8.546;2022-07-10T12:49:05;16.70;99.90
18189;DHT22;9219;50.396;8.546;2022-07-10T12:51:44;16.90;99.90
18189;DHT22;9219;50.396;8.546;2022-07-10T12:54:36;16.80;99.90
18189;DHT22;9219;50.396;8.546;2022-07-10T12:57:06;16.70;99.90
18189;DHT22;9219;50.396;8.546;2022-07-10T13:04:52;16.90;99.90
18189;DHT22;9219;50.396;8.546;2022-07-10T13:07:19;16.70;99.90
18189;DHT22;9219;50.396;8.546;2022-07-10T13:09:48;16.70;99.90
18189;DHT22;9219;50.396;8.546;2022-07-10T13:12:16;16.80;99.90
18189;DHT22;9219;50.396;8.546;2022-07-10T13:14:44;16.80;99.90
18189;DHT22;9219;50.396;8.546;2022-07-10T13:17:12;17.00;99.90
18189;DHT22;9219;50.396;8.546;2022-07-10T13:19:41;17.00;99.90
18189;DHT22;9219;50.396;8.546;2022-07-10T13:25:08;16.80;99.90
18189;DHT22;9219;50.396;8.546;2022-07-10T13:27:36;16.60;99.90
18189;DHT22;9219;50.396;8.546;2022-07-10T13:30:03;16.50;99.90
18189;DHT22;9219;50.396;8.546;2022-07-10T13:32:31;16.60;99.90
18189;DHT22;9219;50.396;8.546;2022-07-10T13:35:00;16.60;99.90
18189;DHT22;9219;50.396;8.546;2022-07-10T13:37:28;16.60;99.90
18189;DHT22;9219;50.396;8.546;2022-07-10T13:39:57;16.70;99.90
18189;DHT22;9219;50.396;8.546;2022-07-10T13:42:26;16.70;99.90
18189;DHT22;9219;50.396;8.546;2022-07-10T13:44:54;16.80;99.90
18189;DHT22;9219;50.396;8.546;2022-07-10T13:52:51;16.60;99.90
18189;DHT22;9219;50.396;8.546;2022-07-10T13:55:19;16.80;99.90
18189;DHT22;9219;50.396;8.546;2022-07-10T13:57:46;17.00;99.90
18189;DHT22;9219;50.396;8.546;2022-07-10T14:00:14;17.10;99.90
18189;DHT22;9219;50.396;8.546;2022-07-10T14:02:42;17.30;99.90
18189;DHT22;9219;50.396;8.546;2022-07-10T14:05:10;17.40;99.90
18189;DHT22;9219;50.396;8.546;2022-07-10T14:07:37;17.50;99.90
18189;DHT22;9219;50.396;8.546;2022-07-10T14:18:04;16.90;99.90
18189;DHT22;9219;50.396;8.546;2022-07-10T14:20:32;16.90;99.90
18189;DHT22;9219;50.396;8.546;2022-07-10T14:23:21;16.80;99.90
18189;DHT22;9219;50.396;8.546;2022-07-10T14:25:49;16.80;99.90
18189;DHT22;9219;50.396;8.546;2022-07-10T14:28:17;16.70;99.90
18189;DHT22;9219;50.396;8.546;2022-07-10T14:30:45;16.90;99.90
18189;DHT22;9219;50.396;8.546;2022-07-10T14:33:18;16.90;99.90
18189;DHT22;9219;50.396;8.546;2022-07-10T14:40:58;16.80;99.90
18189;DHT22;9219;50.396;8.546;2022-07-10T14:43:32;16.70;99.90
18189;DHT22;9219;50.396;8.546;2022-07-10T14:46:01;16.60;99.90
18189;DHT22;9219;50.396;8.546;2022-07-10T14:48:34;16.60;99.90
18189;DHT22;9219;50.396;8.546;2022-07-10T14:51:02;16.90;99.90
18189;DHT22;9219;50.396;8.546;2022-07-10T14:53:30;17.20;99.90
18189;DHT22;9219;50.396;8.546;2022-07-10T14:56:02;17.60;99.90
18189;DHT22;9219;50.396;8.546;2022-07-10T15:04:25;17.70;99.90
18189;DHT22;9219;50.396;8.546;2022-07-10T15:06:52;17.40;99.90
18189;DHT22;9219;50.396;8.546;2022-07-10T15:09:20;17.30;99.90
18189;DHT22;9219;50.396;8.546;2022-07-10T15:11:49;17.10;99.90
18189;DHT22;9219;50.396;8.546;2022-07-10T15:14:19;17.10;99.90
18189;DHT22;9219;50.396;8.546;2022-07-10T15:16:48;17.10;99.90
18189;DHT22;9219;50.396;8.546;2022-07-10T15:19:15;17.20;99.90
18189;DHT22;9219;50.396;8.546;2022-07-10T15:29:37;17.30;99.90
18189;DHT22;9219;50.396;8.546;2022-07-10T15:32:06;17.30;99.90
18189;DHT22;9219;50.396;8.546;2022-07-10T15:34:36;17.30;99.90
18189;DHT22;9219;50.396;8.546;2022-07-10T15:37:04;17.10;99.90
18189;DHT22;9219;50.396;8.546;2022-07-10T15:39:32;17.00;99.90
18189;DHT22;9219;50.396;8.546;2022-07-10T15:42:07;16.80;99.90
18189;DHT22;9219;50.396;8.546;2022-07-10T15:44:37;17.00;99.90
18189;DHT22;9219;50.396;8.546;2022-07-10T15:49:50;17.10;99.90
18189;DHT22;9219;50.396;8.546;2022-07-10T15:52:18;17.20;99.90
18189;DHT22;9219;50.396;8.546;2022-07-10T15:54:46;17.10;99.90
18189;DHT22;9219;50.396;8.546;2022-07-10T15:57:13;17.00;99.90
18189;DHT22;9219;50.396;8.546;2022-07-10T15:59:44;16.90;99.90
18189;DHT22;9219;50.396;8.546;2022-07-10T16:02:11;16.80;99.90
18189;DHT22;9219;50.396;8.546;2022-07-10T16:04:41;16.80;99.90
18189;DHT22;9219;50.396;8.546;2022-07-10T16:12:17;16.90;99.90
18189;DHT22;9219;50.396;8.546;2022-07-10T16:14:46;16.80;99.90
18189;DHT22;9219;50.396;8.546;2022-07-10T16:17:14;16.80;99.90
18189;DHT22;9219;50.396;8.546;2022-07-10T16:19:41;16.80;99.90
18189;DHT22;9219;50.396;8.546;2022-07-10T16:22:12;16.70;99.90
18189;DHT22;9219;50.396;8.546;2022-07-10T16:24:40;16.60;99.90
18189;DHT22;9219;50.396;8.546;2022-07-10T16:27:24;16.60;99.90
18189;DHT22;9219;50.396;8.546;2022-07-10T16:29:51;16.60;99.90
18189;DHT22;9219;50.396;8.546;2022-07-10T16:37:40;16.50;99.90
18189;DHT22;9219;50.396;8.546;2022-07-10T16:40:10;16.00;99.90
18189;DHT22;9219;50.396;8.546;2022-07-10T16:42:37;15.90;99.90
18189;DHT22;9219;50.396;8.546;2022-07-10T16:45:06;16.00;99.90
18189;DHT22;9219;50.396;8.546;2022-07-10T16:47:38;16.00;99.90
18189;DHT22;9219;50.396;8.546;2022-07-10T16:50:09;16.10;99.90
18189;DHT22;9219;50.396;8.546;2022-07-10T16:52:42;16.20;99.90
18189;DHT22;9219;50.396;8.546;2022-07-10T16:59:57;16.10;99.90
18189;DHT22;9219;50.396;8.546;2022-07-10T17:02:24;16.10;99.90
18189;DHT22;9219;50.396;8.546;2022-07-10T17:04:53;16.00;99.90
18189;DHT22;9219;50.396;8.546;2022-07-10T17:07:21;15.90;99.90
18189;DHT22;9219;50.396;8.546;2022-07-10T17:09:51;16.00;99.90
18189;DHT22;9219;50.396;8.546;2022-07-10T17:12:20;16.10;99.90
18189;DHT22;9219;50.396;8.546;2022-07-10T17:14:49;16.00;99.90
18189;DHT22;9219;50.396;8.546;2022-07-10T17:17:18;16.00;99.90
18189;DHT22;9219;50.396;8.546;2022-07-10T17:24:53;16.10;99.90
18189;DHT22;9219;50.396;8.546;2022-07-10T17:27:23;16.10;99.90
18189;DHT22;9219;50.396;8.546;2022-07-10T17:29:53;16.10;99.90
18189;DHT22;9219;50.396;8.546;2022-07-10T17:32:22;15.80;99.90
18189;DHT22;9219;50.396;8.546;2022-07-10T17:34:50;15.60;99.90
18189;DHT22;9219;50.396;8.546;2022-07-10T17:37:18;15.50;99.90
18189;DHT22;9219;50.396;8.546;2022-07-10T17:39:45;15.30;99.90
18189;DHT22;9219;50.396;8.546;2022-07-10T17:45:12;15.40;99.90
18189;DHT22;9219;50.396;8.546;2022-07-10T17:47:43;15.30;99.90
18189;DHT22;9219;50.396;8.546;2022-07-10T17:50:11;15.30;99.90
18189;DHT22;9219;50.396;8.546;2022-07-10T17:52:40;15.20;99.90
18189;DHT22;9219;50.396;8.546;2022-07-10T17:55:09;15.20;99.90
18189;DHT22;9219;50.396;8.546;2022-07-10T17:57:37;15.20;99.90
18189;DHT22;9219;50.396;8.546;2022-07-10T18:00:06;15.30;99.90
18189;DHT22;9219;50.396;8.546;2022-07-10T18:05:53;15.20;99.90
18189;DHT22;9219;50.396;8.546;2022-07-10T18:08:22;15.10;99.90
18189;DHT22;9219;50.396;8.546;2022-07-10T18:10:52;15.10;99.90
18189;DHT22;9219;50.396;8.546;2022-07-10T18:13:23;15.00;99.90
18189;DHT22;9219;50.396;8.546;2022-07-10T18:15:52;15.10;99.90
18189;DHT22;9219;50.396;8.546;2022-07-10T18:18:20;15.10;99.90
18189;DHT22;9219;50.396;8.546;2022-07-10T18:20:47;15.00;99.90
18189;DHT22;9219;50.396;8.546;2022-07-10T18:23:16;15.10;99.90
18189;DHT22;9219;50.396;8.546;2022-07-10T18:30:51;15.40;99.90
18189;DHT22;9219;50.396;8.546;2022-07-10T18:33:19;15.20;99.90
18189;DHT22;9219;50.396;8.546;2022-07-10T18:36:26;15.30;99.90
18189;DHT22;9219;50.396;8.546;2022-07-10T18:38:55;15.30;99.90
18189;DHT22;9219;50.396;8.546;2022-07-10T18:41:26;15.50;99.90
18189;DHT22;9219;50.396;8.546;2022-07-10T18:43:54;15.40;99.90
18189;DHT22;9219;50.396;8.546;2022-07-10T18:46:23;15.40;99.90
18189;DHT22;9219;50.396;8.546;2022-07-10T18:53:59;15.30;99.90
18189;DHT22;9219;50.396;8.546;2022-07-10T18:56:27;15.20;99.90
18189;DHT22;9219;50.396;8.546;2022-07-10T18:58:57;15.40;99.90
18189;DHT22;9219;50.396;8.546;2022-07-10T19:01:25;15.20;99.90
18189;DHT22;9219;50.396;8.546;2022-07-10T19:03:53;15.00;99.90
18189;DHT22;9219;50.396;8.546;2022-07-10T19:06:22;14.90;99.90
18189;DHT22;9219;50.396;8.546;2022-07-10T19:08:51;14.90;99.90
18189;DHT22;9219;50.396;8.546;2022-07-10T19:17:12;14.50;99.90
18189;DHT22;9219;50.396;8.546;2022-07-10T19:19:44;14.50;99.90
18189;DHT22;9219;50.396;8.546;2022-07-10T19:22:12;14.60;99.90
18189;DHT22;9219;50.396;8.546;2022-07-10T19:24:42;14.50;99.90
18189;DHT22;9219;50.396;8.546;2022-07-10T19:27:13;14.50;99.90
18189;DHT22;9219;50.396;8.546;2022-07-10T19:29:43;14.60;99.90
18189;DHT22;9219;50.396;8.546;2022-07-10T19:32:15;14.50;99.90
18189;DHT22;9219;50.396;8.546;2022-07-10T19:34:44;14.50;99.90
18189;DHT22;9219;50.396;8.546;2022-07-10T19:42:33;14.30;99.90
18189;DHT22;9219;50.396;8.546;2022-07-10T19:45:01;14.50;99.90
18189;DHT22;9219;50.396;8.546;2022-07-10T19:47:29;14.50;99.90
18189;DHT22;9219;50.396;8.546;2022-07-10T19:49:58;14.50;99.90
18189;DHT22;9219;50.396;8.546;2022-07-10T19:52:25;14.70;99.90
18189;DHT22;9219;50.396;8.546;2022-07-10T19:54:54;14.60;99.90
18189;DHT22;9219;50.396;8.546;2022-07-10T19:57:22;14.70;99.90
18189;DHT22;9219;50.396;8.546;2022-07-10T20:04:56;14.90;99.90
18189;DHT22;9219;50.396;8.546;2022-07-10T20:07:24;14.80;99.90
18189;DHT22;9219;50.396;8.546;2022-07-10T20:09:51;14.50;99.90
18189;DHT22;9219;50.396;8.546;2022-07-10T20:12:19;14.40;99.90
18189;DHT22;9219;50.396;8.546;2022-07-10T20:14:46;14.30;99.90
18189;DHT22;9219;50.396;8.546;2022-07-10T20:17:15;14.40;99.90
18189;DHT22;9219;50.396;8.546;2022-07-10T20:19:43;14.50;99.90